Time;durP1;ratioP1;P1;durP2;ratioP2;P2;SDS_P1;SDS_P2;PMS_P1;PMS_P2;Temp;Humidity;BMP_temperature;BMP_pressure;BME280_temperature;BME280_humidity;BME280_pressure;Samples;Min_cycle;Max_cycle;Signal;HPM_P1;HPM_P2
2021/03/19 15:01:30;;;;;;;29.27;13.77;;;;;;;3.37;58.07;98899.48;123942;1108;104172;-71
2021/03/19 15:03:57;;;;;;;25.93;12.27;;;;;;;3.29;57.53;98896.34;124039;1109;104162;-71
2021/03/19 15:06:25;;;;;;;26.53;12.03;;;;;;;3.27;58.06;98898.19;123882;1109;104595;-71
2021/03/19 15:08:52;;;;;;;29.47;14.03;;;;;;;3.18;57.69;98899.47;123942;1108;104159;-72
2021/03/19 15:11:19;;;;;;;40.55;17.70;;;;;;;3.16;57.75;98900.47;123907;1109;104277;-72
2021/03/19 15:13:46;;;;;;;34.55;16.90;;;;;;;3.13;58.17;98904.08;123992;1106;104252;-71
2021/03/19 15:16:13;;;;;;;28.77;13.27;;;;;;;3.07;58.29;98897.33;123944;1109;104198;-72
2021/03/19 15:18:41;;;;;;;28.77;13.40;;;;;;;3.04;58.00;98907.98;123968;1109;104255;-72
2021/03/19 15:21:11;;;;;;;30.30;13.57;;;;;;;3.00;57.47;98905.56;124010;1107;104338;-71
2021/03/19 15:23:42;;;;;;;28.23;13.57;;;;;;;3.01;57.82;98905.48;123977;1109;104290;-75
2021/03/19 15:26:16;;;;;;;28.27;12.70;;;;;;;3.00;58.03;98908.19;123944;1109;104294;-73
2021/03/19 15:28:43;;;;;;;27.80;13.07;;;;;;;3.00;57.50;98905.56;123946;1109;104220;-73
2021/03/19 15:31:11;;;;;;;30.87;14.97;;;;;;;3.02;57.16;98908.98;123977;1106;104214;-72
2021/03/19 15:33:38;;;;;;;28.07;13.03;;;;;;;3.01;57.81;98910.73;123965;1108;104259;-72
2021/03/19 15:36:07;;;;;;;31.23;13.27;;;;;;;3.02;57.62;98908.98;123942;1106;104299;-71
2021/03/19 15:38:34;;;;;;;32.70;14.13;;;;;;;3.04;57.43;98905.34;124095;1109;104242;-75
2021/03/19 15:41:02;;;;;;;45.15;18.45;;;;;;;3.07;57.62;98925.37;123914;1108;104242;-72
2021/03/19 15:43:30;;;;;;;35.47;15.23;;;;;;;3.07;57.33;98917.48;124066;1109;104645;-74
2021/03/19 15:45:58;;;;;;;31.80;14.80;;;;;;;3.06;58.03;98915.78;123947;1109;104367;-71
2021/03/19 15:48:28;;;;;;;30.83;14.93;;;;;;;3.01;57.30;98917.78;123916;1109;104216;-71
2021/03/19 15:51:00;;;;;;;27.25;13.55;;;;;;;2.96;57.20;98916.20;123913;1106;104265;-72
2021/03/19 15:53:27;;;;;;;32.10;14.80;;;;;;;2.93;58.01;98923.35;123992;1109;104182;-72
2021/03/19 15:55:55;;;;;;;31.63;14.77;;;;;;;2.90;58.19;98919.09;123972;1109;104245;-72
2021/03/19 15:58:22;;;;;;;29.57;13.63;;;;;;;2.85;58.40;98928.95;123965;1109;104434;-71
2021/03/19 16:00:50;;;;;;;26.87;12.83;;;;;;;2.82;57.50;98923.83;123890;1109;104226;-72
2021/03/19 16:03:19;;;;;;;27.83;13.17;;;;;;;2.82;57.75;98918.57;123996;1109;104175;-72
2021/03/19 16:05:46;;;;;;;25.37;12.90;;;;;;;2.80;57.30;98926.53;123969;1109;104258;-71
2021/03/19 16:08:18;;;;;;;34.70;16.10;;;;;;;2.74;57.88;98926.80;123953;1109;104286;-72
2021/03/19 16:10:46;;;;;;;29.30;14.80;;;;;;;2.67;57.34;98930.59;123999;1108;104315;-73
2021/03/19 16:13:15;;;;;;;33.53;15.20;;;;;;;2.61;58.02;98934.34;124020;1107;104267;-72
2021/03/19 16:15:43;;;;;;;31.23;14.93;;;;;;;2.61;57.77;98933.48;123960;1106;104192;-72
2021/03/19 16:18:14;;;;;;;34.13;16.30;;;;;;;2.59;58.03;98933.55;123967;1109;104233;-73
2021/03/19 16:20:43;;;;;;;85.67;46.73;;;;;;;2.53;57.79;98936.44;123929;1108;104242;-71
2021/03/19 16:23:12;;;;;;;50.30;26.53;;;;;;;2.51;58.11;98943.52;123933;1109;104325;-72
2021/03/19 16:25:40;;;;;;;36.10;18.40;;;;;;;2.51;57.56;98946.98;123981;1109;104258;-73
2021/03/19 16:28:10;;;;;;;35.67;17.30;;;;;;;2.48;57.93;98952.36;124035;1108;104197;-72
2021/03/19 16:30:40;;;;;;;36.77;18.10;;;;;;;2.45;57.71;98956.89;124002;1109;104367;-71
2021/03/19 16:33:09;;;;;;;40.13;19.50;;;;;;;2.41;57.34;98957.94;124033;1109;104265;-74
2021/03/19 16:35:39;;;;;;;42.10;20.87;;;;;;;2.39;58.03;98955.39;124027;1109;104387;-72
2021/03/19 16:38:13;;;;;;;51.87;25.93;;;;;;;2.38;57.60;98965.02;123859;1109;104280;-70
2021/03/19 16:40:39;;;;;;;62.60;32.63;;;;;;;2.36;57.52;98966.84;123808;1108;104245;-71
2021/03/19 16:43:08;;;;;;;74.80;39.80;;;;;;;2.32;57.78;98962.64;123832;1109;104240;-69
2021/03/19 16:45:37;;;;;;;90.30;46.60;;;;;;;2.27;57.97;98974.25;124027;1109;104274;-71
2021/03/19 16:48:08;;;;;;;73.47;37.47;;;;;;;2.23;57.65;98970.91;123948;1109;104495;-71
2021/03/19 16:50:35;;;;;;;64.47;32.50;;;;;;;2.20;58.07;98971.87;123848;1109;104666;-70
2021/03/19 16:53:26;;;;;;;53.87;25.80;;;;;;;2.13;57.20;98974.81;123839;1109;104213;-71
2021/03/19 16:56:03;;;;;;;48.30;24.30;;;;;;;2.09;57.56;98971.43;123850;1109;104226;-70
2021/03/19 16:58:35;;;;;;;49.43;24.73;;;;;;;2.05;57.55;98969.84;123876;1109;104171;-70
2021/03/19 17:01:06;;;;;;;55.15;29.05;;;;;;;1.98;57.95;98973.64;123852;1109;104349;-70
2021/03/19 17:03:44;;;;;;;56.63;29.67;;;;;;;1.91;57.31;98975.62;125891;1108;102064;-70
2021/03/19 17:06:18;;;;;;;57.03;29.90;;;;;;;1.87;57.13;98969.66;125915;1106;101889;-71
2021/03/19 17:08:47;;;;;;;57.63;30.50;;;;;;;1.84;57.61;98976.77;125884;1108;102246;-71
2021/03/19 17:11:18;;;;;;;53.23;29.73;;;;;;;1.81;57.67;98976.92;125132;1109;104191;-70
2021/03/19 17:13:46;;;;;;;54.63;29.03;;;;;;;1.77;57.34;98970.92;123931;1109;104300;-72
2021/03/19 17:16:22;;;;;;;53.03;27.87;;;;;;;1.74;57.19;98986.77;123782;1108;104284;-72
2021/03/19 17:18:54;;;;;;;55.23;28.83;;;;;;;1.70;57.63;98985.17;123817;1109;104325;-73
2021/03/19 17:21:27;;;;;;;56.20;28.55;;;;;;;1.66;57.27;98979.20;123843;1109;104267;-71
2021/03/19 17:23:57;;;;;;;65.40;32.40;;;;;;;1.61;57.45;98984.63;123920;1109;104233;-71
2021/03/19 17:26:27;;;;;;;61.70;31.63;;;;;;;1.58;57.24;98987.37;123816;1109;104219;-72
2021/03/19 17:28:58;;;;;;;75.07;36.37;;;;;;;1.53;57.53;98978.81;123948;1108;104187;-71
2021/03/19 17:31:30;;;;;;;68.65;33.60;;;;;;;1.48;57.69;98984.20;123685;1109;104245;-70
2021/03/19 17:34:03;;;;;;;69.87;33.57;;;;;;;1.44;57.88;98987.01;123832;1108;104187;-70
2021/03/19 17:36:34;;;;;;;59.03;29.57;;;;;;;1.38;57.83;98988.09;123997;1108;104620;-71
2021/03/19 17:39:01;;;;;;;64.05;30.80;;;;;;;1.34;57.50;98992.58;123919;1107;104192;-73
2021/03/19 17:41:28;;;;;;;65.30;34.07;;;;;;;1.32;57.58;98990.94;123939;1109;104190;-73
2021/03/19 17:43:55;;;;;;;57.75;29.25;;;;;;;1.28;57.38;98984.93;124038;1108;104213;-70
2021/03/19 17:46:25;;;;;;;50.97;27.20;;;;;;;1.26;57.43;98991.16;123973;1109;104557;-70
2021/03/19 17:48:53;;;;;;;53.10;27.47;;;;;;;1.22;57.65;98987.80;123662;1109;104198;-70
2021/03/19 17:51:21;;;;;;;55.33;28.50;;;;;;;1.19;57.74;99001.84;123935;1109;104597;-71
2021/03/19 17:53:49;;;;;;;55.10;27.93;;;;;;;1.16;57.77;99001.11;123888;1109;104268;-69
2021/03/19 17:56:19;;;;;;;56.90;29.40;;;;;;;1.13;57.98;98998.59;123969;1109;104255;-70
2021/03/19 17:58:48;;;;;;;57.87;29.87;;;;;;;1.12;57.77;99002.97;123858;1108;104181;-70
2021/03/19 18:01:17;;;;;;;63.63;33.47;;;;;;;1.10;57.56;99003.95;123931;1109;104320;-72
2021/03/19 18:03:45;;;;;;;62.90;31.90;;;;;;;1.06;57.46;98999.72;123963;1109;104281;-73
2021/03/19 18:06:12;;;;;;;71.90;36.27;;;;;;;1.01;57.62;98997.27;123883;1109;104182;-71
2021/03/19 18:08:39;;;;;;;81.20;40.03;;;;;;;0.98;57.70;99000.83;123936;1109;104187;-72
2021/03/19 18:11:10;;;;;;;79.17;41.70;;;;;;;0.95;57.59;99000.94;123946;1109;104168;-71
2021/03/19 18:13:40;;;;;;;67.87;32.80;;;;;;;0.92;57.86;99001.03;123844;1106;104271;-71
2021/03/19 18:16:10;;;;;;;69.53;33.57;;;;;;;0.91;58.18;99003.73;123853;1109;104411;-71
2021/03/19 18:18:38;;;;;;;83.30;36.73;;;;;;;0.86;57.90;99009.97;123615;1109;104198;-70
2021/03/19 18:21:05;;;;;;;76.53;38.17;;;;;;;0.84;57.64;99009.16;123562;1109;104283;-71
2021/03/19 18:23:35;;;;;;;73.03;36.57;;;;;;;0.81;57.69;99011.89;123871;1109;104181;-71
2021/03/19 18:26:03;;;;;;;64.97;31.00;;;;;;;0.77;57.65;99014.67;123866;1108;104264;-71
2021/03/19 18:28:41;;;;;;;57.70;29.27;;;;;;;0.74;57.86;99007.76;123622;1109;104502;-72
2021/03/19 18:31:10;;;;;;;55.20;27.07;;;;;;;0.70;57.42;99009.63;124422;1108;104249;-73
2021/03/19 18:33:38;;;;;;;56.50;27.83;;;;;;;0.64;57.60;99014.20;123795;1108;104156;-72
2021/03/19 18:36:08;;;;;;;53.83;25.03;;;;;;;0.58;57.86;99013.52;123784;1107;104258;-72
2021/03/19 18:38:38;;;;;;;52.33;26.20;;;;;;;0.54;58.25;99014.52;123811;1109;104626;-73
2021/03/19 18:41:06;;;;;;;55.33;26.53;;;;;;;0.53;57.94;99011.94;123936;1107;104223;-72
2021/03/19 18:43:34;;;;;;;48.73;23.90;;;;;;;0.51;57.88;99016.36;124027;1109;104731;-74
2021/03/19 18:46:01;;;;;;;46.60;25.60;;;;;;;0.49;57.95;99012.94;123949;1109;104326;-72
2021/03/19 18:48:28;;;;;;;54.50;25.93;;;;;;;0.47;58.36;99012.13;123934;1109;104169;-74
2021/03/19 18:50:56;;;;;;;52.50;26.87;;;;;;;0.44;57.96;99018.33;123805;1107;104159;-72
2021/03/19 18:53:23;;;;;;;55.50;29.03;;;;;;;0.42;57.59;99020.14;123996;1108;104361;-72
2021/03/19 18:55:50;;;;;;;55.57;28.23;;;;;;;0.40;58.23;99020.20;123887;1109;104191;-73
2021/03/19 18:58:21;;;;;;;55.23;26.05;;;;;;;0.40;57.85;99017.59;123926;1109;104299;-72
2021/03/19 19:00:50;;;;;;;53.53;25.50;;;;;;;0.39;57.96;99026.34;123923;1109;104249;-73
2021/03/19 19:03:22;;;;;;;61.20;28.67;;;;;;;0.38;57.67;99022.02;123987;1108;104252;-73
2021/03/19 19:05:49;;;;;;;77.63;36.50;;;;;;;0.38;58.19;99029.86;124058;1109;104237;-73
2021/03/19 19:08:16;;;;;;;74.30;35.60;;;;;;;0.37;58.02;99028.16;124062;1109;104198;-74
2021/03/19 19:10:43;;;;;;;73.07;36.87;;;;;;;0.38;58.11;99029.86;123989;1109;104182;-74
2021/03/19 19:13:10;;;;;;;72.87;37.63;;;;;;;0.38;58.19;99034.23;124003;1109;104229;-74
2021/03/19 19:15:38;;;;;;;75.35;38.05;;;;;;;0.37;58.50;99038.63;123951;1109;104261;-73
2021/03/19 19:18:08;;;;;;;75.23;36.83;;;;;;;0.35;58.18;99036.94;124019;1109;104258;-73
2021/03/19 19:20:41;;;;;;;67.97;36.77;;;;;;;0.35;57.95;99036.94;123885;1108;104227;-72
2021/03/19 19:23:09;;;;;;;65.75;35.90;;;;;;;0.36;58.28;99041.27;123962;1109;104252;-73
2021/03/19 19:25:39;;;;;;;71.70;36.77;;;;;;;0.33;58.05;99034.38;124022;1109;104230;-73
2021/03/19 19:28:13;;;;;;;69.90;37.27;;;;;;;0.31;58.22;99041.42;124025;1108;104274;-74
2021/03/19 19:30:42;;;;;;;80.90;38.33;;;;;;;0.29;58.64;99036.22;124061;1109;104277;-74
2021/03/19 19:33:10;;;;;;;77.23;39.70;;;;;;;0.25;58.46;99039.83;123983;1109;104188;-71
2021/03/19 19:35:40;;;;;;;90.63;45.63;;;;;;;0.24;58.22;99040.73;124012;1109;104220;-71
2021/03/19 19:38:16;;;;;;;76.80;40.20;;;;;;;0.24;58.75;99045.97;123958;1109;104182;-72
2021/03/19 19:40:48;;;;;;;83.37;42.83;;;;;;;0.24;58.53;99043.35;123792;1108;104268;-72
2021/03/19 19:43:30;;;;;;;87.30;43.10;;;;;;;0.26;58.84;99038.09;123937;1107;104323;-72
2021/03/19 19:45:57;;;;;;;100.63;49.93;;;;;;;0.28;58.13;99037.12;123940;1109;104188;-70
2021/03/19 19:48:25;;;;;;;125.27;61.50;;;;;;;0.29;58.14;99038.00;123783;1109;104249;-70
2021/03/19 19:50:58;;;;;;;131.50;66.00;;;;;;;0.30;58.57;99039.70;123945;1109;104624;-71
2021/03/19 19:53:29;;;;;;;128.97;65.50;;;;;;;0.26;58.12;99045.94;124003;1109;104271;-71
2021/03/19 19:55:58;;;;;;;135.50;68.63;;;;;;;0.25;58.26;99039.83;123921;1109;104429;-73
2021/03/19 19:58:34;;;;;;;130.50;65.40;;;;;;;0.26;58.71;99045.94;123636;1109;104319;-71
2021/03/19 20:01:04;;;;;;;128.10;66.80;;;;;;;0.27;58.71;99043.26;123766;1106;104290;-70
2021/03/19 20:03:33;;;;;;;125.67;64.47;;;;;;;0.29;59.06;99043.23;123979;1109;103183;-71
2021/03/19 20:06:01;;;;;;;119.00;60.83;;;;;;;0.31;58.96;99043.17;123918;1109;104262;-70
2021/03/19 20:08:28;;;;;;;117.73;57.90;;;;;;;0.32;58.79;99043.13;123948;1107;104632;-70
2021/03/19 20:10:56;;;;;;;123.47;60.37;;;;;;;0.34;59.02;99048.31;123958;1107;104233;-70
2021/03/19 20:13:24;;;;;;;115.93;57.13;;;;;;;0.35;58.63;99050.89;124007;1109;104281;-71
2021/03/19 20:15:52;;;;;;;124.90;62.30;;;;;;;0.36;58.75;99049.98;123959;1108;104158;-71
2021/03/19 20:18:39;;;;;;;125.30;63.05;;;;;;;0.37;58.65;99050.83;124021;1109;104262;-71
2021/03/19 20:21:19;;;;;;;127.37;64.13;;;;;;;0.37;58.63;99045.59;123977;1109;104191;-72
2021/03/19 20:23:48;;;;;;;132.10;65.90;;;;;;;0.36;58.77;99059.58;123973;1108;104195;-72
2021/03/19 20:26:16;;;;;;;141.70;71.63;;;;;;;0.36;59.11;99049.12;123984;1109;104278;-72
2021/03/19 20:28:47;;;;;;;129.87;67.33;;;;;;;0.35;58.79;99050.02;123950;1109;104191;-70
2021/03/19 20:31:18;;;;;;;134.07;67.00;;;;;;;0.34;58.75;99051.80;124048;1108;104190;-71
2021/03/19 20:33:46;;;;;;;126.50;62.13;;;;;;;0.33;58.98;99050.08;124026;1109;104325;-71
2021/03/19 20:36:39;;;;;;;111.93;56.77;;;;;;;0.33;58.82;99043.98;123957;1109;104185;-70
2021/03/19 20:39:13;;;;;;;110.53;55.73;;;;;;;0.32;58.96;99047.50;123942;1109;104174;-70
2021/03/19 20:41:40;;;;;;;110.97;55.37;;;;;;;0.31;58.87;99048.40;123957;1109;104293;-71
2021/03/19 20:44:08;;;;;;;113.80;58.13;;;;;;;0.32;59.15;99055.34;123999;1108;104159;-71
2021/03/19 20:46:37;;;;;;;108.35;56.40;;;;;;;0.33;59.17;99055.31;123934;1109;104316;-71
2021/03/19 20:49:07;;;;;;;114.90;58.47;;;;;;;0.34;59.20;99058.77;124001;1108;104290;-71
2021/03/19 20:51:34;;;;;;;114.70;57.33;;;;;;;0.34;59.25;99062.27;123859;1108;104233;-70
2021/03/19 20:54:02;;;;;;;112.10;54.70;;;;;;;0.35;59.32;99060.48;123953;1108;104261;-70
2021/03/19 20:56:35;;;;;;;109.00;52.83;;;;;;;0.34;58.94;99057.03;123860;1109;104325;-70
2021/03/19 20:59:04;;;;;;;111.35;52.35;;;;;;;0.36;59.21;99064.81;123824;1108;104258;-71
2021/03/19 21:01:35;;;;;;;106.03;54.27;;;;;;;0.38;59.26;99066.50;124411;1109;104196;-71
2021/03/19 21:04:06;;;;;;;108.53;53.63;;;;;;;0.41;59.18;99065.53;123778;1109;104316;-71
2021/03/19 21:06:51;;;;;;;106.50;54.07;;;;;;;0.43;59.58;99071.58;123861;1109;104226;-70
2021/03/19 21:09:26;;;;;;;97.90;52.43;;;;;;;0.36;58.82;99065.69;123907;1109;104191;-71
2021/03/19 21:11:57;;;;;;;92.55;48.85;;;;;;;0.36;59.08;99067.44;123891;1108;104159;-72
2021/03/19 21:14:25;;;;;;;107.10;53.80;;;;;;;0.31;59.15;99075.44;123767;1108;104185;-73
2021/03/19 21:16:55;;;;;;;114.27;58.67;;;;;;;0.24;58.98;99076.52;123819;1107;104373;-73
2021/03/19 21:19:25;;;;;;;108.57;56.20;;;;;;;0.18;59.19;99076.70;124002;1109;104227;-74
2021/03/19 21:21:52;;;;;;;114.30;57.03;;;;;;;0.14;59.62;99076.79;123985;1109;104159;-73
2021/03/19 21:24:20;;;;;;;111.33;56.87;;;;;;;0.14;59.62;99084.64;123998;1109;104245;-72
2021/03/19 21:26:48;;;;;;;110.13;54.17;;;;;;;0.17;59.72;99081.09;124781;1108;104267;-73
2021/03/19 21:29:17;;;;;;;163.03;88.43;;;;;;;0.20;59.68;99083.62;123898;1106;104264;-72
2021/03/19 21:31:48;;;;;;;122.00;64.90;;;;;;;0.25;59.66;99088.70;123775;1107;104169;-71
2021/03/19 21:34:16;;;;;;;98.17;49.43;;;;;;;0.26;59.30;99082.56;123704;1109;104280;-73
2021/03/19 21:36:59;;;;;;;89.60;47.33;;;;;;;0.28;59.30;99094.69;123841;1106;105100;-72
2021/03/19 21:39:28;;;;;;;89.30;44.37;;;;;;;0.31;59.68;99092.88;123854;1109;104175;-72
2021/03/19 21:41:57;;;;;;;89.03;45.17;;;;;;;0.29;59.46;99093.78;123953;1109;104261;-71
2021/03/19 21:44:28;;;;;;;84.50;43.73;;;;;;;0.28;59.77;99092.06;123898;1108;104194;-70
2021/03/19 21:46:55;;;;;;;88.57;43.50;;;;;;;0.27;59.46;99092.97;123878;1109;104267;-70
2021/03/19 21:49:26;;;;;;;83.00;40.07;;;;;;;0.28;59.57;99097.30;123847;1108;104313;-72
2021/03/19 21:51:56;;;;;;;81.47;41.90;;;;;;;0.22;59.38;99099.25;123812;1109;104166;-72
2021/03/19 21:54:25;;;;;;;88.30;43.70;;;;;;;0.22;59.69;99097.48;123944;1109;104278;-71
2021/03/19 21:56:53;;;;;;;86.30;44.73;;;;;;;0.22;59.78;99100.09;123950;1109;104252;-72
2021/03/19 21:59:22;;;;;;;89.20;44.30;;;;;;;0.20;59.52;99096.70;123929;1109;104175;-71
2021/03/19 22:01:50;;;;;;;87.93;43.90;;;;;;;0.20;60.01;99104.55;123819;1109;104265;-70
2021/03/19 22:04:18;;;;;;;86.50;42.17;;;;;;;0.23;59.73;99101.81;123671;1109;104285;-70
2021/03/19 22:06:46;;;;;;;85.17;43.30;;;;;;;0.24;59.95;99105.30;123844;1108;104220;-72
2021/03/19 22:09:14;;;;;;;97.27;48.50;;;;;;;0.25;59.67;99113.09;123960;1109;104162;-71
2021/03/19 22:11:41;;;;;;;89.57;45.73;;;;;;;0.29;60.29;99114.72;123723;1109;104248;-71
2021/03/19 22:14:09;;;;;;;87.67;42.37;;;;;;;0.34;59.88;99116.34;125079;1108;104315;-72
2021/03/19 22:16:37;;;;;;;86.10;43.80;;;;;;;0.34;60.18;99105.88;123889;1107;104256;-72
2021/03/19 22:19:09;;;;;;;81.10;42.50;;;;;;;0.34;60.04;99111.11;123932;1108;104271;-72
2021/03/19 22:21:46;;;;;;;87.00;43.57;;;;;;;0.33;59.80;99118.11;123924;1109;104163;-70
2021/03/19 22:24:18;;;;;;;90.53;44.40;;;;;;;0.35;59.78;99115.44;125347;1106;104187;-70
2021/03/19 22:26:48;;;;;;;88.80;43.03;;;;;;;0.35;60.08;99118.92;123949;1109;104159;-70
2021/03/19 22:29:18;;;;;;;81.37;40.40;;;;;;;0.35;60.00;99116.31;123967;1107;104185;-70
2021/03/19 22:31:47;;;;;;;81.53;40.73;;;;;;;0.36;60.10;99122.38;125317;1108;104162;-71
2021/03/19 22:34:16;;;;;;;87.10;43.90;;;;;;;0.36;60.04;99125.00;123967;1109;104224;-72
2021/03/19 22:36:43;;;;;;;88.83;46.10;;;;;;;0.36;60.37;99122.38;123825;1109;104320;-71
2021/03/19 22:39:10;;;;;;;96.43;47.40;;;;;;;0.36;60.11;99128.49;123781;1109;104255;-71
2021/03/19 22:41:37;;;;;;;97.57;50.97;;;;;;;0.40;59.84;99124.88;123778;1108;104188;-72
2021/03/19 22:44:04;;;;;;;97.73;46.67;;;;;;;0.40;60.20;99132.73;123930;1109;104194;-71
2021/03/19 22:46:34;;;;;;;101.70;50.00;;;;;;;0.41;60.00;99130.95;124784;1107;104143;-71
2021/03/19 22:49:05;;;;;;;116.47;57.60;;;;;;;0.42;60.20;99128.28;123782;1109;104720;-71
2021/03/19 22:51:33;;;;;;;109.80;53.77;;;;;;;0.39;60.05;99125.78;123973;1109;104364;-72
2021/03/19 22:54:01;;;;;;;115.90;58.00;;;;;;;0.37;60.16;99132.82;124034;1109;104248;-73
2021/03/19 22:56:29;;;;;;;113.17;55.20;;;;;;;0.33;60.08;99128.58;124027;1109;104252;-71
2021/03/19 22:59:00;;;;;;;111.60;54.53;;;;;;;0.28;60.20;99135.70;123682;1108;104270;-70
2021/03/19 23:01:32;;;;;;;111.17;53.73;;;;;;;0.23;59.63;99130.59;123790;1107;104268;-70
2021/03/19 23:04:02;;;;;;;113.13;54.57;;;;;;;0.19;60.12;99134.22;123901;1109;104191;-70
2021/03/19 23:06:32;;;;;;;121.73;56.80;;;;;;;0.19;60.08;99130.73;123785;1109;104253;-71
2021/03/19 23:09:00;;;;;;;110.43;53.73;;;;;;;0.18;59.89;99131.64;123856;1107;104264;-70
2021/03/19 23:11:32;;;;;;;113.27;53.97;;;;;;;0.19;60.62;99136.84;123915;1109;104283;-71
2021/03/19 23:14:01;;;;;;;110.70;55.60;;;;;;;0.19;60.46;99141.20;123882;1109;104236;-71
2021/03/19 23:16:35;;;;;;;101.27;50.20;;;;;;;0.16;60.26;99138.67;123935;1108;104367;-71
2021/03/19 23:19:06;;;;;;;112.47;55.43;;;;;;;0.12;60.67;99145.77;123883;1109;104261;-70
2021/03/19 23:21:36;;;;;;;118.37;56.60;;;;;;;0.10;60.17;99143.17;123829;1106;104245;-72
2021/03/19 23:24:10;;;;;;;114.53;56.13;;;;;;;0.09;60.07;99161.55;124892;1108;104187;-74
2021/03/19 23:26:45;;;;;;;116.53;56.87;;;;;;;0.05;60.27;99155.52;124036;1106;104181;-71
2021/03/19 23:29:23;;;;;;;119.00;57.65;;;;;;;-0.02;60.55;99152.23;123932;1108;104386;-71
2021/03/19 23:31:51;;;;;;;104.63;52.77;;;;;;;-0.03;60.36;99152.29;124426;1109;104160;-71
2021/03/19 23:34:21;;;;;;;106.65;54.20;;;;;;;-0.04;60.46;99159.27;123610;1107;104392;-71
2021/03/19 23:36:49;;;;;;;116.27;56.43;;;;;;;-0.06;59.98;99158.45;123879;1108;104303;-71
2021/03/19 23:39:19;;;;;;;120.13;56.67;;;;;;;-0.07;60.56;99156.73;123730;1109;104262;-71
2021/03/19 23:41:47;;;;;;;114.30;55.73;;;;;;;-0.07;60.89;99154.11;123970;1108;104435;-71
2021/03/19 23:44:14;;;;;;;118.63;57.67;;;;;;;-0.08;59.91;99162.86;123894;1109;104274;-71
2021/03/19 23:46:44;;;;;;;122.03;59.63;;;;;;;-0.06;60.58;99173.30;123869;1106;104320;-69
2021/03/19 23:49:21;;;;;;;123.33;61.67;;;;;;;-0.06;60.41;99161.06;123736;1108;104274;-71
